< < Back
Terminal Aerodrome Forecast


Current Version              Previous Versions:   1  2  3  4  5  6  7  8  9  

Terminal Aerodrome Forecast

321
FTUS42 KTAE 301100
TAFTLH
TAF
KTLH 301120Z 3012/0112 02004KT 5SM -DZ BR SCT007 OVC019
      TEMPO 3012/3016 BKN005
     FM301600 03005KT P6SM BKN025
     FM302000 03005KT P6SM SCT030
     FM010200 VRB02KT P6SM SCT250=



Latest METAR

475
SAUS80 KWBC 301600 RRB
MTRTLH
METAR KTLH 301553Z 05004KT 10SM BKN012 OVC018 24/21 A2990 RMK AO2 SLP125
T02440206


USA.gov is the U.S. government's official web portal to all federal, state and local government web resources and services.